Time;durP1;ratioP1;P1;durP2;ratioP2;P2;SDS_P1;SDS_P2;PMS_P1;PMS_P2;Temp;Humidity;BMP_temperature;BMP_pressure;BME280_temperature;BME280_humidity;BME280_pressure;Samples;Min_cycle;Max_cycle;Signal;HPM_P1;HPM_P2
2022/06/28 00:00:04;;;;;;;190.57;180.03;;;17.10;99.90;;;;;;5038478;28;20218;-77
2022/06/28 00:02:29;;;;;;;280.33;265.13;;;17.10;99.90;;;;;;5033923;28;20178;-77
2022/06/28 00:04:55;;;;;;;240.17;226.63;;;17.10;99.90;;;;;;5034127;28;20179;-77
2022/06/28 00:07:21;;;;;;;251.80;237.97;;;17.10;99.90;;;;;;5031525;28;20186;-77
2022/06/28 00:09:47;;;;;;;110.03;103.37;;;17.20;99.90;;;;;;5032350;28;20194;-77
2022/06/28 00:12:13;;;;;;;86.70;81.90;;;17.20;99.90;;;;;;5032359;28;20183;-77
2022/06/28 00:17:23;;;;;;;21.97;20.67;;;17.20;99.90;;;;;;5032574;28;20190;-77
2022/06/28 00:19:49;;;;;;;15.03;13.93;;;17.10;99.90;;;;;;5034902;28;20207;-77
2022/06/28 00:22:15;;;;;;;20.37;18.90;;;17.10;99.90;;;;;;5034778;28;20187;-77
2022/06/28 00:24:40;;;;;;;30.93;29.33;;;17.10;99.90;;;;;;5033357;28;20178;-77
2022/06/28 00:27:06;;;;;;;38.20;35.97;;;17.10;99.90;;;;;;5031212;28;20190;-77
2022/06/28 00:29:32;;;;;;;24.70;23.13;;;17.10;99.90;;;;;;5032931;28;20183;-77
2022/06/28 00:31:58;;;;;;;28.27;26.47;;;17.10;99.90;;;;;;5033305;28;20550;-77
2022/06/28 00:34:24;;;;;;;32.33;30.50;;;17.10;99.90;;;;;;5034957;28;20213;-77
2022/06/28 00:36:50;;;;;;;38.30;36.00;;;17.10;99.90;;;;;;5034985;28;20179;-77
2022/06/28 00:39:15;;;;;;;46.00;43.40;;;17.10;99.90;;;;;;5032746;28;20189;-77
2022/06/28 00:41:42;;;;;;;40.07;37.50;;;17.20;99.90;;;;;;5032564;28;20261;-77
2022/06/28 00:44:11;;;;;;;28.83;27.13;;;17.20;99.90;;;;;;5032594;28;20274;-77
2022/06/28 00:46:37;;;;;;;45.17;42.40;;;17.30;99.90;;;;;;5032619;28;20221;-77
2022/06/28 00:49:03;;;;;;;54.10;51.17;;;17.20;99.90;;;;;;5031955;28;20612;-77
2022/06/28 00:51:29;;;;;;;52.83;49.53;;;17.20;99.90;;;;;;5031706;28;20214;-77
2022/06/28 00:53:55;;;;;;;50.70;47.93;;;17.30;99.90;;;;;;5032610;28;20203;-77
2022/06/28 00:56:22;;;;;;;33.43;31.37;;;17.40;99.90;;;;;;5033508;28;20178;-77
2022/06/28 00:58:48;;;;;;;33.83;31.57;;;17.40;99.90;;;;;;5035318;28;20175;-77
2022/06/28 01:01:14;;;;;;;43.20;40.33;;;17.40;99.90;;;;;;5034487;28;20357;-77
2022/06/28 01:03:41;;;;;;;30.53;28.57;;;17.40;99.90;;;;;;5033192;28;20179;-77
2022/06/28 01:06:07;;;;;;;30.13;27.70;;;17.40;99.90;;;;;;5032369;28;20270;-77
2022/06/28 01:08:33;;;;;;;40.33;38.00;;;17.40;99.90;;;;;;5031354;28;20266;-77
2022/06/28 01:11:18;;;;;;;48.80;45.30;;;17.40;99.90;;;;;;5031349;28;20195;-76
2022/06/28 01:13:52;;;;;;;58.53;55.23;;;17.40;99.90;;;;;;5034468;28;20211;-77
2022/06/28 01:16:20;;;;;;;83.07;78.63;;;17.40;99.90;;;;;;5030879;28;20187;-77
2022/06/28 01:18:45;;;;;;;105.80;100.30;;;17.40;99.90;;;;;;5030933;28;20175;-77
2022/06/28 01:21:16;;;;;;;101.93;95.87;;;17.40;99.90;;;;;;5031554;28;20691;-77
2022/06/28 01:23:44;;;;;;;93.50;87.77;;;17.40;99.90;;;;;;5037988;28;20187;-76
2022/06/28 01:26:12;;;;;;;140.00;132.00;;;17.40;99.90;;;;;;5050438;28;20282;-76
2022/06/28 01:28:38;;;;;;;166.70;156.50;;;17.40;99.90;;;;;;5030907;28;20183;-76
2022/06/28 01:31:05;;;;;;;196.13;184.70;;;17.40;99.90;;;;;;5030254;28;20198;-76
2022/06/28 01:33:32;;;;;;;155.73;146.40;;;17.40;99.90;;;;;;5030026;28;20190;-77
2022/06/28 01:35:58;;;;;;;172.93;163.47;;;17.40;99.90;;;;;;5031487;28;20175;-76
2022/06/28 01:38:24;;;;;;;84.80;79.30;;;17.40;99.90;;;;;;5029523;28;20652;-77
2022/06/28 01:40:50;;;;;;;103.27;97.07;;;17.40;99.90;;;;;;5031234;28;20209;-77
2022/06/28 01:43:17;;;;;;;113.67;106.50;;;17.40;99.90;;;;;;5030185;28;20266;-77
2022/06/28 01:45:44;;;;;;;139.83;131.93;;;17.30;99.90;;;;;;5030016;28;20274;-77
2022/06/28 01:48:10;;;;;;;178.03;166.10;;;17.30;99.90;;;;;;5029315;28;20185;-77
2022/06/28 01:50:37;;;;;;;90.97;84.63;;;17.20;99.90;;;;;;5031444;28;20281;-77
2022/06/28 01:53:03;;;;;;;160.50;151.27;;;17.20;99.90;;;;;;5032484;28;20659;-77
2022/06/28 01:55:29;;;;;;;168.20;158.53;;;17.20;99.90;;;;;;5034685;28;20249;-77
2022/06/28 01:57:55;;;;;;;136.23;128.87;;;17.10;99.90;;;;;;5038615;28;20202;-77
2022/06/28 02:00:21;;;;;;;110.33;103.10;;;17.10;99.90;;;;;;5031021;28;20672;-77
2022/06/28 02:02:47;;;;;;;98.70;93.00;;;17.10;99.90;;;;;;5032136;28;20182;-77
2022/06/28 02:05:12;;;;;;;97.87;91.60;;;17.10;99.90;;;;;;5031921;28;20179;-77
2022/06/28 02:07:47;;;;;;;178.27;168.07;;;17.10;99.90;;;;;;5030845;28;20240;-77
2022/06/28 02:10:13;;;;;;;113.40;106.33;;;17.10;99.90;;;;;;5030807;28;20257;-77
2022/06/28 02:12:38;;;;;;;134.10;126.27;;;17.00;99.90;;;;;;5030623;28;20652;-77
2022/06/28 02:15:05;;;;;;;112.23;105.90;;;17.00;99.90;;;;;;5031445;28;20217;-77
2022/06/28 02:17:30;;;;;;;115.77;109.17;;;17.00;99.90;;;;;;5029550;28;20183;-77
2022/06/28 02:19:56;;;;;;;156.67;147.83;;;16.90;99.90;;;;;;5031825;28;20203;-77
2022/06/28 02:22:22;;;;;;;161.53;152.43;;;16.90;99.90;;;;;;5031355;28;20170;-77
2022/06/28 02:24:48;;;;;;;139.60;131.63;;;16.90;99.90;;;;;;5032368;28;20183;-77
2022/06/28 02:27:14;;;;;;;82.40;77.30;;;16.90;99.90;;;;;;5030502;28;20679;-77
2022/06/28 02:29:40;;;;;;;68.10;64.03;;;16.90;99.90;;;;;;5029833;28;20221;-77
2022/06/28 02:32:06;;;;;;;46.30;43.50;;;16.80;99.90;;;;;;5033208;28;20274;-77
2022/06/28 02:42:45;;;;;;;74.73;70.43;;;16.70;99.90;;;;;;5030830;28;20554;-77
2022/06/28 02:45:11;;;;;;;64.37;60.37;;;16.70;99.90;;;;;;5031088;28;20183;-77
2022/06/28 02:47:37;;;;;;;62.63;58.87;;;16.60;99.90;;;;;;5030528;28;20186;-77
2022/06/28 02:50:03;;;;;;;28.10;26.20;;;16.60;99.90;;;;;;5029817;28;20287;-77
2022/06/28 02:52:28;;;;;;;18.87;17.23;;;16.50;99.90;;;;;;5031380;28;20647;-77
2022/06/28 02:54:54;;;;;;;16.53;15.17;;;16.60;99.90;;;;;;5031247;28;20241;-77
2022/06/28 02:57:20;;;;;;;14.80;13.27;;;16.60;99.90;;;;;;5030878;28;20182;-77
2022/06/28 02:59:46;;;;;;;12.57;11.53;;;16.60;99.90;;;;;;5032058;28;20185;-77
2022/06/28 03:02:12;;;;;;;12.60;11.60;;;16.50;99.90;;;;;;5031617;28;20274;-77
2022/06/28 03:04:38;;;;;;;17.13;15.63;;;16.50;99.90;;;;;;5050361;28;20186;-76
2022/06/28 03:07:03;;;;;;;15.47;14.13;;;16.40;99.90;;;;;;5032639;28;20241;-77
2022/06/28 03:09:29;;;;;;;22.07;20.37;;;16.40;99.90;;;;;;5029701;28;20219;-77
2022/06/28 03:11:55;;;;;;;27.07;24.40;;;16.30;99.90;;;;;;5032963;28;20274;-77
2022/06/28 03:14:21;;;;;;;16.17;14.97;;;16.20;99.90;;;;;;5034194;28;20207;-77
2022/06/28 03:16:46;;;;;;;12.97;11.63;;;16.20;99.90;;;;;;5033786;28;20187;-77
2022/06/28 03:19:12;;;;;;;44.00;40.97;;;16.20;99.90;;;;;;5037982;28;20171;-77
2022/06/28 03:21:38;;;;;;;59.60;55.70;;;16.20;99.90;;;;;;5043098;28;20199;-77
2022/06/28 03:24:04;;;;;;;86.73;81.70;;;16.30;99.90;;;;;;5039862;28;20186;-77
2022/06/28 03:26:29;;;;;;;142.53;134.50;;;16.30;99.90;;;;;;5037600;28;20179;-78
2022/06/28 03:28:55;;;;;;;150.53;142.17;;;16.40;99.90;;;;;;5035041;28;20635;-78
2022/06/28 03:31:21;;;;;;;148.27;139.60;;;16.40;99.90;;;;;;5036225;28;20509;-77
2022/06/28 03:33:47;;;;;;;107.23;101.27;;;16.50;99.90;;;;;;5034768;28;20261;-77
2022/06/28 03:36:12;;;;;;;22.83;20.53;;;16.50;99.90;;;;;;5035137;28;20182;-78
2022/06/28 03:38:38;;;;;;;20.00;18.40;;;16.60;99.90;;;;;;5035360;28;20179;-77
2022/06/28 03:41:04;;;;;;;13.47;12.30;;;16.60;99.90;;;;;;5040589;28;20307;-77
2022/06/28 03:43:30;;;;;;;25.40;22.93;;;16.60;99.90;;;;;;5034255;28;20198;-78
2022/06/28 03:45:56;;;;;;;38.67;36.27;;;16.60;99.90;;;;;;5033488;28;20414;-77
2022/06/28 03:48:21;;;;;;;32.33;30.07;;;16.60;99.90;;;;;;5033081;28;20171;-77
2022/06/28 03:50:47;;;;;;;35.37;32.83;;;16.70;99.90;;;;;;5034143;28;20746;-77
2022/06/28 03:53:13;;;;;;;36.47;33.90;;;16.70;99.90;;;;;;5034899;28;20175;-77
2022/06/28 03:55:39;;;;;;;36.30;33.90;;;16.80;99.90;;;;;;5035232;28;20554;-77
2022/06/28 03:58:04;;;;;;;59.23;55.73;;;16.80;99.90;;;;;;5034068;28;20216;-77
2022/06/28 04:00:30;;;;;;;44.20;41.63;;;16.80;99.90;;;;;;5035885;28;20242;-77
2022/06/28 04:02:59;;;;;;;48.63;45.60;;;16.80;99.90;;;;;;5035898;28;20198;-78
2022/06/28 04:05:26;;;;;;;53.80;50.70;;;16.90;99.90;;;;;;5034102;28;20186;-77
2022/06/28 04:07:52;;;;;;;61.80;58.10;;;16.90;99.90;;;;;;5033131;28;20183;-77
2022/06/28 04:10:18;;;;;;;133.33;126.33;;;16.90;99.90;;;;;;5033140;28;20250;-77
2022/06/28 04:12:43;;;;;;;134.73;127.77;;;17.00;99.90;;;;;;5050024;28;20247;-77
2022/06/28 04:15:10;;;;;;;157.57;149.30;;;17.00;99.90;;;;;;5047956;28;20237;-77
2022/06/28 04:17:35;;;;;;;102.80;96.87;;;17.10;99.90;;;;;;5048681;28;20179;-77
2022/06/28 04:20:01;;;;;;;58.80;54.83;;;17.10;99.90;;;;;;5048323;28;20198;-77
2022/06/28 04:22:27;;;;;;;32.13;29.83;;;17.10;99.90;;;;;;5041424;28;20171;-77
2022/06/28 04:24:53;;;;;;;32.63;30.33;;;17.10;99.90;;;;;;5035392;28;20183;-77
2022/06/28 04:27:19;;;;;;;39.00;36.53;;;17.10;99.90;;;;;;5038351;28;20183;-77
2022/06/28 04:29:44;;;;;;;33.93;31.57;;;17.20;99.90;;;;;;5042381;28;20230;-77
2022/06/28 04:32:10;;;;;;;19.80;18.13;;;17.10;99.90;;;;;;5034132;28;20637;-77
2022/06/28 04:34:36;;;;;;;14.37;13.27;;;17.20;99.90;;;;;;5032299;28;20211;-77
2022/06/28 04:37:02;;;;;;;13.30;12.33;;;17.30;99.90;;;;;;5033486;28;20601;-77
2022/06/28 04:39:28;;;;;;;15.17;13.97;;;17.30;99.90;;;;;;5034489;28;20182;-77
2022/06/28 04:41:53;;;;;;;16.07;14.77;;;17.30;99.90;;;;;;5037221;28;20182;-77
2022/06/28 04:44:19;;;;;;;16.40;15.20;;;17.40;99.90;;;;;;5056482;28;20182;-77
2022/06/28 04:46:45;;;;;;;19.00;17.77;;;17.50;99.90;;;;;;5033894;28;20204;-78
2022/06/28 04:49:11;;;;;;;27.73;26.03;;;17.60;99.90;;;;;;5040039;28;20202;-77
2022/06/28 04:51:36;;;;;;;84.20;79.70;;;17.70;99.90;;;;;;5049375;28;20222;-78
2022/06/28 04:54:02;;;;;;;70.27;66.17;;;17.70;99.90;;;;;;5042675;28;20210;-78
2022/06/28 04:56:28;;;;;;;47.90;44.90;;;17.70;99.90;;;;;;5043225;28;20175;-78
2022/06/28 04:58:54;;;;;;;27.37;25.53;;;17.80;99.90;;;;;;5036514;28;20182;-78
2022/06/28 05:01:20;;;;;;;22.00;20.40;;;17.80;99.90;;;;;;5044098;22;20237;-76
2022/06/28 05:03:46;;;;;;;15.47;14.37;;;17.90;99.90;;;;;;5012195;28;20241;-77
2022/06/28 05:06:12;;;;;;;15.63;14.43;;;17.90;99.90;;;;;;5012145;28;20179;-76
2022/06/28 05:08:38;;;;;;;18.13;15.87;;;18.00;99.90;;;;;;5011138;28;20234;-77
2022/06/28 05:11:04;;;;;;;33.90;31.53;;;18.10;99.90;;;;;;5019807;28;20195;-77
2022/06/28 05:13:30;;;;;;;23.60;21.93;;;18.10;99.90;;;;;;5030772;28;20198;-78
2022/06/28 05:15:55;;;;;;;22.37;20.93;;;18.10;99.90;;;;;;5030879;28;20229;-78
2022/06/28 05:18:21;;;;;;;19.30;17.97;;;18.20;99.90;;;;;;5029691;28;20194;-78
2022/06/28 05:20:47;;;;;;;16.80;15.70;;;18.20;99.90;;;;;;5032096;28;20234;-76
2022/06/28 05:23:12;;;;;;;16.17;15.03;;;18.30;99.90;;;;;;5030384;28;20214;-76
2022/06/28 05:25:38;;;;;;;38.67;36.37;;;18.40;99.90;;;;;;5031572;28;20179;-77
2022/06/28 05:28:04;;;;;;;18.83;17.50;;;18.50;99.90;;;;;;5029443;28;20190;-78
2022/06/28 05:30:30;;;;;;;14.23;13.13;;;18.60;99.90;;;;;;5030292;28;20256;-77
2022/06/28 05:32:56;;;;;;;18.20;17.10;;;18.80;99.90;;;;;;5030185;28;20328;-77
2022/06/28 05:35:22;;;;;;;39.70;37.63;;;19.30;99.90;;;;;;5029869;28;20218;-77
2022/06/28 05:37:47;;;;;;;30.00;28.27;;;19.80;99.90;;;;;;5029386;28;20651;-76
2022/06/28 05:40:13;;;;;;;22.50;21.17;;;19.90;99.90;;;;;;5030116;28;20186;-77
2022/06/28 05:42:39;;;;;;;22.60;20.67;;;20.30;99.90;;;;;;5030098;28;20574;-77
2022/06/28 05:45:05;;;;;;;51.80;49.13;;;20.70;99.90;;;;;;5031178;28;20179;-77
2022/06/28 05:47:32;;;;;;;66.63;63.20;;;21.10;99.90;;;;;;5030148;28;20634;-77
2022/06/28 05:49:58;;;;;;;58.43;55.40;;;21.50;99.90;;;;;;5030581;28;20190;-78
2022/06/28 05:52:24;;;;;;;80.00;75.90;;;21.70;99.90;;;;;;5029962;28;20194;-77
2022/06/28 05:54:50;;;;;;;112.65;106.95;;;22.00;99.90;;;;;;5031014;28;20213;-77
2022/06/28 05:57:16;;;;;;;95.20;90.40;;;22.40;99.90;;;;;;5030514;28;20179;-77
2022/06/28 05:59:42;;;;;;;30.98;28.73;;;23.10;99.90;;;;;;5029665;28;20257;-77
2022/06/28 06:02:07;;;;;;;10.35;9.43;;;23.80;99.90;;;;;;5029899;28;20725;-78
2022/06/28 06:04:33;;;;;;;11.13;10.20;;;24.30;99.90;;;;;;5030212;28;20256;-78
2022/06/28 06:06:59;;;;;;;13.90;12.75;;;24.80;99.90;;;;;;5032935;28;20217;-77
2022/06/28 06:09:25;;;;;;;20.25;18.98;;;24.80;99.90;;;;;;5036790;28;20179;-76
2022/06/28 06:11:50;;;;;;;17.02;15.98;;;25.30;99.90;;;;;;5030875;28;20257;-77
2022/06/28 06:14:16;;;;;;;30.98;29.27;;;25.70;99.90;;;;;;5035580;28;20214;-77
2022/06/28 06:16:43;;;;;;;116.90;111.03;;;25.70;99.90;;;;;;5031394;28;20193;-79
2022/06/28 06:19:09;;;;;;;168.20;159.68;;;25.70;99.90;;;;;;5030546;28;20187;-78
2022/06/28 06:21:35;;;;;;;166.45;157.70;;;25.40;99.90;;;;;;5030916;28;20591;-78
2022/06/28 06:24:01;;;;;;;27.30;25.70;;;24.50;99.90;;;;;;5029704;28;20469;-77
2022/06/28 06:26:27;;;;;;;7.97;7.30;;;23.40;99.90;;;;;;5030947;28;20298;-77
2022/06/28 06:28:52;;;;;;;141.63;134.82;;;22.50;99.90;;;;;;5028758;28;20175;-77
2022/06/28 06:31:18;;;;;;;8.32;7.45;;;21.90;99.90;;;;;;5029614;28;20683;-77
2022/06/28 06:33:44;;;;;;;8.35;7.75;;;21.60;99.90;;;;;;5030557;28;20175;-77
2022/06/28 06:36:10;;;;;;;8.30;7.57;;;21.50;99.90;;;;;;5030784;28;20198;-78
2022/06/28 06:38:35;;;;;;;9.18;8.48;;;21.40;99.90;;;;;;5028693;28;20182;-77
2022/06/28 06:41:01;;;;;;;32.60;26.52;;;22.00;99.90;;;;;;5030644;28;20288;-77
2022/06/28 06:43:28;;;;;;;22.40;20.50;;;23.20;99.90;;;;;;5029620;28;20179;-77
2022/06/28 06:45:54;;;;;;;29.83;28.23;;;24.20;99.90;;;;;;5030929;28;20187;-77
2022/06/28 06:48:23;;;;;;;12.77;12.10;;;25.20;99.90;;;;;;5033703;28;20186;-77
2022/06/28 06:50:49;;;;;;;126.25;119.95;;;25.60;99.90;;;;;;5033466;28;20199;-77
2022/06/28 06:53:15;;;;;;;129.38;122.80;;;25.60;99.90;;;;;;5034641;28;20179;-76
2022/06/28 06:55:42;;;;;;;125.25;118.85;;;25.50;99.90;;;;;;5034346;28;20221;-77
2022/06/28 06:58:08;;;;;;;134.88;128.13;;;25.40;99.90;;;;;;5033542;28;20214;-77
2022/06/28 07:00:34;;;;;;;137.40;130.40;;;25.20;99.90;;;;;;5033006;28;20629;-77
2022/06/28 07:03:03;;;;;;;69.50;66.13;;;24.20;99.90;;;;;;5034208;28;20631;-77
2022/06/28 07:05:30;;;;;;;17.75;16.50;;;23.70;99.90;;;;;;5033066;28;20249;-76
2022/06/28 07:07:56;;;;;;;8.32;7.78;;;23.20;99.90;;;;;;5033343;28;20179;-77
2022/06/28 07:10:22;;;;;;;48.70;46.30;;;22.40;99.90;;;;;;5033175;28;20683;-78
2022/06/28 07:12:48;;;;;;;213.10;203.00;;;22.30;99.90;;;;;;5034439;28;20179;-78
2022/06/28 07:15:14;;;;;;;133.27;127.07;;;22.40;99.90;;;;;;5034050;28;20211;-77
2022/06/28 07:17:40;;;;;;;227.17;216.40;;;22.80;99.90;;;;;;5033141;28;20175;-78
2022/06/28 07:20:06;;;;;;;217.90;207.50;;;23.00;99.90;;;;;;5034478;28;20183;-78
2022/06/28 07:22:33;;;;;;;218.38;208.25;;;23.00;99.90;;;;;;5034580;28;20179;-78
2022/06/28 07:24:59;;;;;;;151.13;144.02;;;23.50;99.90;;;;;;5034017;28;20211;-77
2022/06/28 07:27:26;;;;;;;17.42;16.38;;;23.80;99.90;;;;;;5031993;28;20183;-77
2022/06/28 07:29:52;;;;;;;44.42;42.25;;;23.60;99.90;;;;;;5033738;28;20229;-77
2022/06/28 07:32:19;;;;;;;34.97;33.28;;;23.50;99.90;;;;;;5033713;28;20273;-77
2022/06/28 07:34:45;;;;;;;149.90;142.60;;;23.40;99.90;;;;;;5033542;28;20211;-76
2022/06/28 07:37:11;;;;;;;82.03;77.82;;;22.90;99.90;;;;;;5033032;28;20527;-77
2022/06/28 07:39:37;;;;;;;14.23;13.50;;;22.50;99.90;;;;;;5033420;28;20620;-77
2022/06/28 07:42:03;;;;;;;8.95;8.35;;;22.30;99.90;;;;;;5033379;28;20226;-77
2022/06/28 07:44:29;;;;;;;8.32;7.82;;;22.10;99.90;;;;;;5033507;28;20191;-76
2022/06/28 07:46:55;;;;;;;7.33;6.80;;;21.80;99.90;;;;;;5031386;28;20233;-77
2022/06/28 07:49:21;;;;;;;8.52;8.02;;;21.70;99.90;;;;;;5032016;28;20191;-77
2022/06/28 07:54:32;;;;;;;6.57;6.07;;;21.60;99.90;;;;;;5033176;28;20210;-77
2022/06/28 07:56:58;;;;;;;7.15;6.65;;;21.60;99.90;;;;;;5032215;28;20186;-77
2022/06/28 07:59:23;;;;;;;7.13;6.73;;;21.60;99.90;;;;;;5033021;28;20201;-77
2022/06/28 08:01:49;;;;;;;7.27;6.67;;;21.40;99.90;;;;;;5031777;28;20679;-77
2022/06/28 08:04:15;;;;;;;13.47;12.47;;;21.20;99.90;;;;;;5033146;28;20191;-77
2022/06/28 08:06:41;;;;;;;14.43;13.63;;;21.20;99.90;;;;;;5032929;28;20186;-77
2022/06/28 08:09:07;;;;;;;13.57;12.60;;;21.30;99.90;;;;;;5031555;28;20639;-77
2022/06/28 08:11:33;;;;;;;12.80;12.10;;;21.50;99.90;;;;;;5033203;28;20280;-77
2022/06/28 08:14:02;;;;;;;12.00;11.37;;;22.30;99.90;;;;;;5033061;28;20268;-77
2022/06/28 08:16:28;;;;;;;34.13;32.30;;;23.20;99.90;;;;;;5033397;28;20202;-77
2022/06/28 08:18:54;;;;;;;122.25;116.00;;;23.70;99.90;;;;;;5032585;28;20179;-77
2022/06/28 08:21:20;;;;;;;121.55;115.82;;;24.00;99.90;;;;;;5034174;28;20282;-76
2022/06/28 08:23:46;;;;;;;105.97;100.97;;;23.90;99.90;;;;;;5033308;28;20187;-76
2022/06/28 08:26:11;;;;;;;43.65;41.38;;;23.90;99.90;;;;;;5031628;28;20198;-76
2022/06/28 08:28:37;;;;;;;32.17;30.52;;;24.00;99.90;;;;;;5031682;28;20560;-76
2022/06/28 08:31:03;;;;;;;16.50;15.70;;;24.00;99.90;;;;;;5032697;28;20249;-76
2022/06/28 08:33:29;;;;;;;58.90;55.88;;;23.90;99.90;;;;;;5032602;28;20721;-76
2022/06/28 08:35:55;;;;;;;10.57;10.02;;;24.20;99.90;;;;;;5032684;28;20577;-76
2022/06/28 08:38:20;;;;;;;46.17;43.88;;;24.80;99.90;;;;;;5030627;28;20256;-77
2022/06/28 08:40:47;;;;;;;41.90;39.10;;;25.10;99.90;;;;;;5031174;28;20659;-77
2022/06/28 08:43:13;;;;;;;86.78;82.47;;;24.90;99.90;;;;;;5032277;28;20206;-77
2022/06/28 08:45:39;;;;;;;76.85;73.07;;;25.60;99.90;;;;;;5032432;28;20648;-77
2022/06/28 08:48:34;;;;;;;74.85;71.28;;;25.80;99.90;;;;;;5030170;28;20183;-77
2022/06/28 08:51:00;;;;;;;18.45;17.50;;;26.00;99.90;;;;;;5031848;28;20323;-76
2022/06/28 08:53:27;;;;;;;9.18;8.48;;;26.30;99.90;;;;;;5035155;28;20257;-76
2022/06/28 08:55:53;;;;;;;13.60;12.90;;;26.20;99.90;;;;;;5035404;28;20221;-76
2022/06/28 08:58:19;;;;;;;9.85;9.32;;;26.30;99.90;;;;;;5031616;28;20171;-77
2022/06/28 09:00:46;;;;;;;11.45;10.95;;;26.30;99.90;;;;;;5035866;28;20249;-76
2022/06/28 09:03:12;;;;;;;11.57;10.98;;;26.80;99.90;;;;;;5033089;28;20183;-76
2022/06/28 09:05:38;;;;;;;10.85;10.20;;;27.40;99.90;;;;;;5032326;28;20313;-77
2022/06/28 09:08:04;;;;;;;7.15;6.85;;;27.70;99.90;;;;;;5030733;28;20210;-77
2022/06/28 09:10:30;;;;;;;5.03;4.78;;;28.40;99.90;;;;;;5031712;28;20203;-77
2022/06/28 09:13:11;;;;;;;7.82;7.45;;;29.10;99.90;;;;;;5030629;28;20175;-77
2022/06/28 09:15:58;;;;;;;6.57;6.28;;;29.20;99.90;;;;;;5030609;28;20202;-76
2022/06/28 09:18:44;;;;;;;9.38;8.98;;;28.20;99.90;;;;;;5029664;28;20178;-77
2022/06/28 09:21:12;;;;;;;4.68;4.43;;;27.30;99.90;;;;;;5030554;28;20670;-77
2022/06/28 09:23:40;;;;;;;5.25;4.85;;;27.10;99.90;;;;;;5031558;28;20171;-76
2022/06/28 09:26:09;;;;;;;18.00;16.85;;;26.60;99.90;;;;;;5031631;28;20179;-77
2022/06/28 09:28:42;;;;;;;13.02;12.48;;;26.30;99.90;;;;;;5030695;28;20527;-77
2022/06/28 09:31:17;;;;;;;12.23;11.55;;;26.30;99.90;;;;;;5031403;28;20210;-77
2022/06/28 09:33:48;;;;;;;13.32;12.60;;;26.50;99.90;;;;;;5030192;28;20186;-77
2022/06/28 09:36:16;;;;;;;14.15;13.38;;;26.70;99.90;;;;;;5030541;28;20623;-76
2022/06/28 09:38:42;;;;;;;8.80;8.05;;;27.00;99.90;;;;;;5030399;28;20176;-77
2022/06/28 09:41:23;;;;;;;4.72;4.40;;;27.20;99.90;;;;;;5031322;28;20206;-77
2022/06/28 09:44:07;;;;;;;4.50;4.30;;;27.00;99.90;;;;;;5030315;28;20187;-77
2022/06/28 09:46:34;;;;;;;3.88;3.78;;;26.70;99.90;;;;;;5030523;28;20210;-77
2022/06/28 09:49:03;;;;;;;6.32;5.75;;;26.50;99.90;;;;;;5029345;28;20217;-78
2022/06/28 09:51:31;;;;;;;5.57;5.28;;;26.40;99.90;;;;;;5029978;28;20206;-78
2022/06/28 09:54:04;;;;;;;11.98;11.40;;;25.90;99.90;;;;;;5029865;28;20528;-77
2022/06/28 09:56:37;;;;;;;15.70;15.00;;;25.30;99.90;;;;;;5031100;28;20648;-77
2022/06/28 09:59:04;;;;;;;8.60;8.10;;;25.20;99.90;;;;;;5030685;28;20183;-78
2022/06/28 10:01:30;;;;;;;15.38;14.57;;;25.60;99.90;;;;;;5030780;28;20276;-78
2022/06/28 10:03:57;;;;;;;18.30;17.20;;;26.20;99.90;;;;;;5029819;28;20179;-78
2022/06/28 10:06:23;;;;;;;16.92;16.15;;;26.50;99.90;;;;;;5029964;28;20274;-78
2022/06/28 10:08:49;;;;;;;20.70;19.70;;;26.30;99.90;;;;;;5030116;28;20186;-78
2022/06/28 10:11:16;;;;;;;18.67;17.83;;;26.10;99.90;;;;;;5031095;28;20244;-77
2022/06/28 10:16:44;;;;;;;9.10;8.68;;;26.40;99.90;;;;;;5030944;28;20186;-77
2022/06/28 10:19:13;;;;;;;12.60;12.00;;;26.30;99.90;;;;;;5029700;28;20594;-77
2022/06/28 10:21:46;;;;;;;10.38;9.98;;;26.30;99.90;;;;;;5034922;28;20597;-77
2022/06/28 10:24:13;;;;;;;9.88;9.38;;;26.10;99.90;;;;;;5034924;28;20183;-77
2022/06/28 10:26:44;;;;;;;4.75;4.55;;;26.10;99.90;;;;;;5033518;28;20190;-78
2022/06/28 10:29:10;;;;;;;6.03;5.72;;;26.20;99.90;;;;;;5033517;28;20194;-77
2022/06/28 10:31:43;;;;;;;6.80;6.53;;;26.50;99.90;;;;;;5034441;28;20202;-77
2022/06/28 10:34:22;;;;;;;6.72;6.22;;;27.50;99.90;;;;;;5034066;28;20207;-77
2022/06/28 10:36:54;;;;;;;5.45;5.20;;;28.60;99.90;;;;;;5033151;28;20186;-78
2022/06/28 10:39:22;;;;;;;4.40;4.10;;;29.20;99.90;;;;;;5034632;28;20229;-78
2022/06/28 10:41:51;;;;;;;7.70;7.20;;;29.90;98.70;;;;;;5034685;28;20257;-77
2022/06/28 10:44:17;;;;;;;8.88;8.35;;;29.90;97.50;;;;;;5034701;28;20194;-77
2022/06/28 10:46:49;;;;;;;10.02;9.52;;;29.90;96.20;;;;;;5032919;28;20179;-78
2022/06/28 10:49:15;;;;;;;7.30;6.90;;;29.70;96.80;;;;;;5034513;28;20651;-77
2022/06/28 10:52:07;;;;;;;7.95;7.50;;;29.80;96.80;;;;;;5033237;28;20229;-78
2022/06/28 10:54:33;;;;;;;3.78;3.65;;;30.50;96.40;;;;;;5034335;28;20246;-77
2022/06/28 10:57:00;;;;;;;3.88;3.58;;;30.70;94.50;;;;;;5033089;28;20206;-78
2022/06/28 10:59:38;;;;;;;3.05;2.95;;;31.10;92.10;;;;;;5034304;28;20183;-78
2022/06/28 11:02:04;;;;;;;3.35;3.22;;;31.20;92.00;;;;;;5034237;28;20219;-76
2022/06/28 11:04:31;;;;;;;4.22;3.92;;;31.00;91.10;;;;;;5033379;28;20182;-76
2022/06/28 11:07:04;;;;;;;3.70;3.60;;;30.10;92.00;;;;;;5033514;28;20183;-76
2022/06/28 11:09:59;;;;;;;4.18;3.97;;;29.60;92.50;;;;;;5034244;28;20178;-76
2022/06/28 11:12:28;;;;;;;5.00;4.80;;;30.20;92.30;;;;;;5033551;28;20233;-76
2022/06/28 11:14:56;;;;;;;4.07;3.78;;;30.60;91.70;;;;;;5033383;28;20629;-76
2022/06/28 11:17:25;;;;;;;2.80;2.70;;;30.80;91.80;;;;;;5032614;28;20354;-76
2022/06/28 11:19:57;;;;;;;2.80;2.70;;;31.00;90.80;;;;;;5033495;28;20179;-76
2022/06/28 11:22:26;;;;;;;3.13;2.90;;;30.60;90.60;;;;;;5033045;28;20199;-76
2022/06/28 11:24:54;;;;;;;3.40;3.28;;;30.00;91.30;;;;;;5034195;28;20183;-76
2022/06/28 11:27:20;;;;;;;4.68;4.47;;;29.60;92.10;;;;;;5033011;28;20186;-76
2022/06/28 11:29:51;;;;;;;4.25;4.05;;;29.10;92.70;;;;;;5032579;28;20175;-76
2022/06/28 11:32:20;;;;;;;4.65;4.32;;;28.50;91.90;;;;;;5031829;28;20198;-75
2022/06/28 11:34:57;;;;;;;4.97;4.78;;;27.90;92.00;;;;;;5032807;28;20206;-76
2022/06/28 11:37:23;;;;;;;6.32;6.13;;;28.20;91.60;;;;;;5032093;28;20187;-76
2022/06/28 11:40:00;;;;;;;5.65;5.13;;;28.70;92.30;;;;;;5036293;28;20251;-75
2022/06/28 11:42:26;;;;;;;7.20;6.80;;;28.70;92.30;;;;;;5037888;28;20207;-76
2022/06/28 11:44:53;;;;;;;9.85;9.45;;;28.30;92.80;;;;;;5034800;28;20682;-76
2022/06/28 11:47:20;;;;;;;3.33;3.13;;;28.20;92.90;;;;;;5036491;28;20206;-76
2022/06/28 11:50:18;;;;;;;4.18;3.92;;;28.60;91.20;;;;;;5033598;28;20736;-76
2022/06/28 11:52:55;;;;;;;3.92;3.78;;;28.60;91.00;;;;;;5033336;28;20225;-76
2022/06/28 11:55:40;;;;;;;7.82;7.43;;;28.30;91.60;;;;;;5033699;28;20317;-76
2022/06/28 11:58:17;;;;;;;7.35;7.05;;;27.60;92.80;;;;;;5032738;28;20237;-76
2022/06/28 12:01:09;;;;;;;8.88;8.27;;;27.40;92.60;;;;;;5032203;28;20555;-76
2022/06/28 12:03:57;;;;;;;6.20;5.90;;;27.00;92.70;;;;;;5033279;28;20203;-76
2022/06/28 12:06:29;;;;;;;6.15;5.95;;;27.00;93.10;;;;;;5033237;28;20183;-76
2022/06/28 12:09:02;;;;;;;8.27;7.88;;;27.30;92.70;;;;;;5031075;28;20278;-76
2022/06/28 12:11:40;;;;;;;7.20;6.60;;;27.40;91.90;;;;;;5033334;28;20207;-76
2022/06/28 12:14:09;;;;;;;8.00;7.60;;;27.80;92.10;;;;;;5032471;28;20572;-76
2022/06/28 12:16:39;;;;;;;11.55;6.13;;;28.00;91.30;;;;;;5032668;28;20251;-76
2022/06/28 12:19:09;;;;;;;4.47;4.28;;;28.20;91.10;;;;;;5033509;28;20555;-76
2022/06/28 12:21:36;;;;;;;4.22;4.03;;;28.30;90.30;;;;;;5032172;28;20288;-76
2022/06/28 12:24:03;;;;;;;5.32;4.97;;;28.20;90.60;;;;;;5032382;28;20179;-76
2022/06/28 12:26:41;;;;;;;7.68;6.15;;;28.10;90.80;;;;;;5033500;28;20575;-76
2022/06/28 12:29:08;;;;;;;9.10;8.70;;;27.60;90.90;;;;;;5031658;28;20672;-76
2022/06/28 12:31:34;;;;;;;8.15;7.50;;;27.30;91.80;;;;;;5031738;28;20233;-76
2022/06/28 12:34:06;;;;;;;8.13;7.72;;;27.20;91.90;;;;;;5032684;28;20222;-76
2022/06/28 12:36:32;;;;;;;7.28;6.97;;;26.70;92.40;;;;;;5031733;28;20537;-76
2022/06/28 12:38:58;;;;;;;5.90;5.68;;;26.70;93.40;;;;;;5030783;28;20170;-76
2022/06/28 12:41:23;;;;;;;7.82;7.07;;;27.20;92.80;;;;;;5033198;28;20290;-76
2022/06/28 12:43:49;;;;;;;10.82;10.18;;;27.80;91.50;;;;;;5032344;28;20662;-76
2022/06/28 12:46:15;;;;;;;8.65;8.07;;;28.10;91.10;;;;;;5033196;28;20638;-75